createdAt,value
2022-11-30T00:01:21.933Z,3.92
2022-11-30T00:03:50.498Z,3.80
2022-11-30T00:06:23.995Z,3.60
2022-11-30T00:08:55.231Z,3.70
2022-11-30T00:11:24.338Z,3.67
2022-11-30T00:13:52.536Z,3.87
2022-11-30T00:16:20.296Z,3.70
2022-11-30T00:18:48.042Z,3.25
2022-11-30T00:21:16.669Z,3.90
2022-11-30T00:23:46.651Z,4.25
2022-11-30T00:26:17.180Z,4.57
2022-11-30T00:28:46.854Z,3.90
2022-11-30T00:31:16.775Z,3.83
2022-11-30T00:33:45.422Z,4.15
2022-11-30T00:36:16.090Z,4.00
2022-11-30T00:38:44.329Z,3.90
2022-11-30T00:41:12.838Z,3.53
2022-11-30T00:43:40.577Z,3.22
2022-11-30T00:46:11.931Z,3.55
2022-11-30T00:48:40.657Z,3.62
2022-11-30T00:51:10.316Z,3.25
2022-11-30T00:53:38.219Z,3.35
2022-11-30T00:56:07.485Z,3.62
2022-11-30T00:58:35.170Z,3.20
2022-11-30T01:01:03.354Z,3.45
2022-11-30T01:03:31.182Z,2.90
2022-11-30T01:06:07.096Z,3.25
2022-11-30T01:08:35.473Z,3.87
2022-11-30T01:11:27.593Z,3.85
2022-11-30T01:13:56.234Z,3.40
2022-11-30T01:16:27.345Z,2.87
2022-11-30T01:18:55.719Z,3.37
2022-11-30T01:21:26.754Z,3.65
2022-11-30T01:23:55.300Z,3.60
2022-11-30T01:26:23.924Z,3.55
2022-11-30T01:28:55.886Z,4.10
2022-11-30T01:31:25.655Z,3.83
2022-11-30T01:33:55.914Z,3.17
2022-11-30T01:36:28.992Z,3.42
2022-11-30T01:38:58.751Z,3.80
2022-11-30T01:41:32.114Z,3.70
2022-11-30T01:44:20.500Z,4.12
2022-11-30T01:46:48.143Z,3.83
2022-11-30T01:49:20.696Z,3.87
2022-11-30T01:51:55.739Z,3.80
2022-11-30T01:54:27.548Z,4.07
2022-11-30T01:57:00.918Z,3.45
2022-11-30T01:59:28.685Z,4.15
2022-11-30T02:01:56.818Z,3.67
2022-11-30T02:04:33.683Z,3.90
2022-11-30T02:07:04.411Z,4.10
2022-11-30T02:09:37.079Z,4.03
2022-11-30T02:12:09.006Z,4.43
2022-11-30T02:15:06.435Z,3.37
2022-11-30T02:17:53.581Z,4.22
2022-11-30T02:21:06.393Z,4.25
2022-11-30T02:24:06.069Z,4.60
2022-11-30T02:26:57.990Z,4.07
2022-11-30T02:29:31.339Z,4.95
2022-11-30T02:32:18.189Z,4.37
2022-11-30T02:34:48.410Z,4.45
2022-11-30T02:37:18.076Z,5.12
2022-11-30T02:39:45.959Z,4.60
2022-11-30T02:42:15.347Z,5.65
2022-11-30T02:44:50.108Z,6.03
2022-11-30T02:47:26.579Z,4.90
2022-11-30T02:50:00.380Z,4.95
2022-11-30T02:52:30.162Z,5.25
2022-11-30T02:55:07.437Z,4.87
2022-11-30T02:57:35.459Z,4.37
2022-11-30T03:00:08.035Z,4.55
2022-11-30T03:02:36.009Z,4.65
2022-11-30T03:05:04.672Z,4.78
2022-11-30T03:07:32.494Z,4.78
2022-11-30T03:10:01.147Z,5.22
2022-11-30T03:12:28.887Z,4.65
2022-11-30T03:14:56.588Z,4.53
2022-11-30T03:17:24.476Z,5.40
2022-11-30T03:19:52.117Z,5.07
2022-11-30T03:22:19.837Z,5.62
2022-11-30T03:24:47.867Z,4.70
2022-11-30T03:27:15.723Z,4.55
2022-11-30T03:29:43.380Z,5.10
2022-11-30T03:32:11.003Z,5.00
2022-11-30T03:34:38.693Z,5.28
2022-11-30T03:37:06.443Z,6.00
2022-11-30T03:39:34.161Z,6.60
2022-11-30T03:42:01.897Z,7.07
2022-11-30T03:44:30.920Z,6.68
2022-11-30T03:46:58.515Z,7.18
2022-11-30T03:49:26.225Z,7.93
2022-11-30T03:51:53.955Z,8.15
2022-11-30T03:54:22.781Z,8.77
2022-11-30T03:56:50.485Z,8.95
2022-11-30T03:59:18.165Z,9.43
2022-11-30T04:01:45.831Z,9.63
2022-11-30T04:04:13.714Z,9.02
2022-11-30T04:06:41.813Z,8.93
2022-11-30T04:09:11.033Z,9.60
2022-11-30T04:11:38.668Z,9.98
2022-11-30T04:14:06.332Z,9.68
2022-11-30T04:16:34.082Z,10.00
2022-11-30T04:19:01.885Z,9.07
2022-11-30T04:21:29.527Z,10.10
2022-11-30T04:23:57.130Z,10.52
2022-11-30T04:26:24.815Z,10.43
2022-11-30T04:28:52.564Z,10.50
2022-11-30T04:31:20.216Z,10.15
2022-11-30T04:33:47.865Z,10.35
2022-11-30T04:36:21.218Z,10.77
2022-11-30T04:38:50.598Z,10.50
2022-11-30T04:41:18.285Z,10.93
2022-11-30T04:43:45.961Z,9.80
2022-11-30T04:46:13.768Z,10.07
2022-11-30T04:48:41.529Z,10.45
2022-11-30T04:51:10.189Z,10.50
2022-11-30T04:53:38.620Z,10.65
2022-11-30T04:56:11.956Z,10.65
2022-11-30T04:58:40.514Z,9.55
2022-11-30T05:01:08.692Z,9.93
2022-11-30T05:03:36.426Z,10.23
2022-11-30T05:06:04.996Z,10.60
2022-11-30T05:08:32.785Z,10.25
2022-11-30T05:11:00.449Z,9.68
2022-11-30T05:13:28.638Z,10.73
2022-11-30T05:15:56.382Z,9.73
2022-11-30T05:18:24.519Z,10.02
2022-11-30T05:20:54.027Z,9.82
2022-11-30T05:23:22.485Z,9.75
2022-11-30T05:25:50.565Z,10.40
2022-11-30T05:28:18.230Z,9.82
2022-11-30T05:30:45.908Z,9.88
2022-11-30T05:33:13.740Z,9.30
2022-11-30T05:35:41.433Z,9.73
2022-11-30T05:38:09.182Z,8.60
2022-11-30T05:40:36.856Z,9.63
2022-11-30T05:43:07.084Z,9.05
2022-11-30T05:45:34.743Z,9.13
2022-11-30T05:48:02.534Z,9.15
2022-11-30T05:50:30.354Z,9.23
2022-11-30T05:52:58.619Z,8.85
2022-11-30T05:55:26.352Z,8.95
2022-11-30T05:57:54.417Z,8.65
2022-11-30T06:00:23.243Z,8.45
2022-11-30T06:02:57.240Z,9.93
2022-11-30T06:05:25.825Z,9.05
2022-11-30T06:07:53.543Z,8.60
2022-11-30T06:10:21.916Z,8.60
2022-11-30T06:12:52.854Z,9.82
2022-11-30T06:15:20.527Z,9.73
2022-11-30T06:17:48.210Z,9.80
2022-11-30T06:20:15.908Z,8.90
2022-11-30T06:22:46.315Z,10.20
2022-11-30T06:25:14.096Z,10.50
2022-11-30T06:27:41.850Z,9.75
2022-11-30T06:30:10.304Z,10.73
2022-11-30T06:32:38.044Z,10.75
2022-11-30T06:35:06.041Z,10.63
2022-11-30T06:37:36.423Z,11.30
2022-11-30T06:40:07.383Z,11.05
2022-11-30T06:42:36.307Z,11.25
2022-11-30T06:45:04.825Z,12.25
2022-11-30T06:47:32.946Z,12.73
2022-11-30T06:50:00.669Z,12.02
2022-11-30T06:52:28.384Z,12.05
2022-11-30T06:54:56.084Z,10.98
2022-11-30T06:57:29.217Z,12.55
2022-11-30T06:59:57.981Z,11.77
2022-11-30T07:02:25.813Z,12.35
2022-11-30T07:04:53.660Z,11.98
2022-11-30T07:07:21.537Z,12.35
2022-11-30T07:09:49.249Z,12.07
2022-11-30T07:12:16.984Z,12.15
2022-11-30T07:14:44.744Z,12.65
2022-11-30T07:17:12.607Z,11.32
2022-11-30T07:19:40.230Z,12.27
2022-11-30T07:22:07.924Z,12.18
2022-11-30T07:24:55.838Z,11.40
2022-11-30T07:27:23.494Z,10.82
2022-11-30T07:29:52.672Z,12.90
2022-11-30T07:32:20.519Z,12.27
2022-11-30T07:34:48.350Z,12.10
2022-11-30T07:37:16.538Z,11.90
2022-11-30T07:39:44.204Z,11.00
2022-11-30T07:42:12.052Z,11.98
2022-11-30T07:44:39.761Z,10.90
2022-11-30T07:47:07.376Z,10.80
2022-11-30T07:49:35.012Z,11.05
2022-11-30T07:52:05.572Z,10.52
2022-11-30T07:54:33.275Z,9.80
2022-11-30T07:57:01.036Z,10.40
2022-11-30T07:59:28.665Z,10.95
2022-11-30T08:01:56.444Z,9.50
2022-11-30T08:04:24.244Z,10.57
2022-11-30T08:06:54.627Z,9.63
2022-11-30T08:09:22.381Z,8.82
2022-11-30T08:11:50.474Z,9.02
2022-11-30T08:14:18.270Z,9.07
2022-11-30T08:16:46.110Z,9.02
2022-11-30T08:19:13.968Z,8.10
2022-11-30T08:21:41.637Z,7.28
2022-11-30T08:24:12.919Z,7.57
2022-11-30T08:26:40.747Z,6.72
2022-11-30T08:29:08.364Z,6.78
2022-11-30T08:31:38.122Z,6.10
2022-11-30T08:34:09.107Z,5.68
2022-11-30T08:36:36.762Z,5.82
2022-11-30T08:39:06.183Z,5.30
2022-11-30T08:41:35.033Z,6.45
2022-11-30T08:44:03.247Z,5.00
2022-11-30T08:49:23.507Z,4.35
2022-11-30T08:54:47.243Z,4.62
2022-11-30T08:57:17.194Z,4.97
2022-11-30T08:59:45.229Z,4.80
2022-11-30T09:02:15.131Z,4.43
2022-11-30T09:04:43.000Z,4.18
2022-11-30T09:07:10.899Z,4.37
2022-11-30T09:09:39.146Z,4.18
2022-11-30T09:12:08.099Z,3.87
2022-11-30T09:14:35.936Z,4.00
2022-11-30T09:17:04.182Z,4.75
2022-11-30T09:19:32.046Z,3.87
2022-11-30T09:21:59.940Z,3.87
2022-11-30T09:24:27.633Z,3.80
2022-11-30T09:26:58.936Z,3.95
2022-11-30T09:29:26.659Z,4.03
2022-11-30T09:31:54.360Z,3.55
2022-11-30T09:34:22.147Z,3.58
2022-11-30T09:36:49.863Z,4.20
2022-11-30T09:39:17.541Z,3.37
2022-11-30T09:42:00.499Z,3.60
2022-11-30T09:44:39.995Z,3.58
2022-11-30T09:47:35.457Z,3.00
2022-11-30T09:50:14.929Z,2.85
2022-11-30T09:52:48.177Z,3.75
2022-11-30T09:55:24.690Z,3.35
2022-11-30T09:57:56.292Z,3.70
2022-11-30T10:00:25.930Z,3.30
2022-11-30T10:02:57.367Z,3.65
2022-11-30T10:05:30.468Z,3.25
2022-11-30T10:08:22.097Z,3.05
2022-11-30T10:11:27.707Z,4.20
2022-11-30T10:14:37.781Z,3.50
2022-11-30T10:17:18.872Z,3.90
2022-11-30T10:20:29.542Z,4.10
2022-11-30T10:23:25.242Z,4.47
2022-11-30T10:26:04.946Z,4.25
2022-11-30T10:28:47.440Z,4.32
2022-11-30T10:31:17.624Z,4.93
2022-11-30T10:33:51.148Z,5.10
2022-11-30T10:36:24.391Z,6.05
2022-11-30T10:38:57.048Z,5.60
2022-11-30T10:41:33.926Z,6.15
2022-11-30T10:44:27.153Z,5.85
2022-11-30T10:47:23.558Z,6.55
2022-11-30T10:49:52.494Z,7.32
2022-11-30T10:52:26.242Z,6.80
2022-11-30T10:55:02.270Z,7.93
2022-11-30T10:57:34.184Z,6.85
2022-11-30T11:00:06.466Z,6.82
2022-11-30T11:02:49.301Z,5.95
2022-11-30T11:05:21.407Z,5.75
2022-11-30T11:08:07.160Z,5.82
2022-11-30T11:10:38.474Z,6.00
2022-11-30T11:13:06.523Z,6.30
2022-11-30T11:15:35.932Z,6.28
2022-11-30T11:18:37.301Z,6.35
2022-11-30T11:21:19.128Z,6.22
2022-11-30T11:23:48.683Z,6.45
2022-11-30T11:26:26.962Z,6.47
2022-11-30T11:28:56.688Z,5.82
2022-11-30T11:31:37.791Z,6.55
2022-11-30T11:34:23.586Z,6.80
2022-11-30T11:37:17.873Z,6.05
2022-11-30T11:39:58.473Z,7.10
2022-11-30T11:42:28.036Z,6.30
2022-11-30T11:44:59.027Z,7.30
2022-11-30T11:47:44.753Z,7.25
2022-11-30T11:51:05.467Z,6.47
2022-11-30T11:53:26.471Z,7.50
2022-11-30T11:56:01.639Z,6.12
2022-11-30T11:58:42.751Z,6.95
2022-11-30T12:04:25.291Z,5.95
2022-11-30T12:06:55.890Z,6.22
2022-11-30T12:09:33.419Z,7.20
2022-11-30T12:12:01.183Z,6.57
2022-11-30T12:14:32.345Z,6.28
2022-11-30T12:17:37.514Z,6.18
2022-11-30T12:20:23.502Z,5.85
2022-11-30T12:22:58.183Z,6.00
2022-11-30T12:25:29.215Z,5.68
2022-11-30T12:28:18.318Z,7.03
2022-11-30T12:31:11.960Z,6.72
2022-11-30T12:33:45.461Z,5.82
2022-11-30T12:36:25.022Z,5.85
2022-11-30T12:39:19.138Z,6.05
2022-11-30T12:42:00.133Z,6.35
2022-11-30T12:44:49.068Z,5.32
2022-11-30T12:47:33.160Z,5.43
2022-11-30T12:50:03.508Z,5.60
2022-11-30T12:52:38.984Z,5.12
2022-11-30T12:55:27.605Z,6.25
2022-11-30T12:58:09.107Z,5.53
2022-11-30T13:00:42.793Z,4.78
2022-11-30T13:03:36.494Z,4.90
2022-11-30T13:06:13.092Z,5.07
2022-11-30T13:08:50.079Z,4.60
2022-11-30T13:11:22.446Z,4.68
2022-11-30T13:13:57.191Z,4.82
2022-11-30T13:16:26.605Z,4.90
2022-11-30T13:19:00.396Z,5.22
2022-11-30T13:21:38.909Z,4.95
2022-11-30T13:24:33.415Z,4.82
2022-11-30T13:27:09.859Z,5.87
2022-11-30T13:30:08.661Z,5.45
2022-11-30T13:35:42.665Z,5.50
2022-11-30T13:38:37.611Z,5.18
2022-11-30T13:41:08.564Z,5.90
2022-11-30T13:43:44.008Z,5.20
2022-11-30T13:46:20.841Z,5.07
2022-11-30T13:48:49.871Z,5.15
2022-11-30T13:51:38.207Z,4.95
2022-11-30T13:54:40.024Z,4.80
2022-11-30T13:57:26.079Z,4.43
2022-11-30T14:00:01.466Z,4.95
2022-11-30T14:02:32.453Z,4.80
2022-11-30T14:05:18.661Z,5.20
2022-11-30T14:08:06.610Z,5.87
2022-11-30T14:10:43.997Z,5.97
2022-11-30T14:13:11.755Z,6.32
2022-11-30T14:15:39.418Z,6.53
2022-11-30T14:18:10.231Z,6.70
2022-11-30T14:20:50.813Z,6.87
2022-11-30T14:23:40.466Z,6.97
2022-11-30T14:26:12.101Z,8.10
2022-11-30T14:29:04.628Z,7.87
2022-11-30T14:31:37.797Z,7.40
2022-11-30T14:34:16.770Z,8.30
2022-11-30T14:36:49.778Z,8.30
2022-11-30T14:39:42.871Z,7.43
2022-11-30T14:42:23.358Z,7.45
2022-11-30T14:44:51.988Z,7.72
2022-11-30T14:47:25.587Z,7.85
2022-11-30T14:49:56.166Z,7.97
2022-11-30T14:52:44.879Z,7.60
2022-11-30T14:55:29.353Z,8.63
2022-11-30T14:58:28.139Z,7.30
2022-11-30T15:00:56.167Z,7.60
2022-11-30T15:03:40.439Z,8.25
2022-11-30T15:06:09.005Z,7.85
2022-11-30T15:08:43.015Z,8.30
2022-11-30T15:11:13.132Z,8.30
2022-11-30T15:13:44.572Z,7.75
2022-11-30T15:16:22.909Z,8.15
2022-11-30T15:18:51.543Z,7.40
2022-11-30T15:21:27.944Z,8.30
2022-11-30T15:23:57.730Z,8.00
2022-11-30T15:27:05.506Z,6.97
2022-11-30T15:29:40.185Z,8.02
2022-11-30T15:32:20.612Z,7.57
2022-11-30T15:35:01.897Z,7.60
2022-11-30T15:37:32.513Z,7.57
2022-11-30T15:40:03.032Z,7.57
2022-11-30T15:42:40.898Z,8.00
2022-11-30T15:45:15.500Z,7.50
2022-11-30T15:47:43.261Z,7.75
2022-11-30T15:50:32.321Z,7.20
2022-11-30T15:53:02.816Z,8.43
2022-11-30T15:55:48.907Z,7.35
2022-11-30T15:58:31.492Z,6.70
2022-11-30T16:01:12.390Z,7.82
2022-11-30T16:04:00.689Z,6.95
2022-11-30T16:06:48.787Z,7.30
2022-11-30T16:09:34.360Z,7.03
2022-11-30T16:12:03.294Z,6.93
2022-11-30T16:14:30.997Z,8.07
2022-11-30T16:17:01.650Z,7.47
2022-11-30T16:19:33.220Z,6.78
2022-11-30T16:22:00.985Z,7.78
2022-11-30T16:24:28.675Z,7.68
2022-11-30T16:26:56.272Z,7.70
2022-11-30T16:29:23.992Z,7.10
2022-11-30T16:31:51.748Z,7.50
2022-11-30T16:34:19.446Z,7.47
2022-11-30T16:36:47.101Z,7.30
2022-11-30T16:39:14.766Z,7.97
2022-11-30T16:41:42.560Z,7.95
2022-11-30T16:44:15.046Z,9.10
2022-11-30T16:46:43.097Z,8.10
2022-11-30T16:49:10.920Z,7.90
2022-11-30T16:51:38.669Z,7.93
2022-11-30T16:54:06.757Z,9.63
2022-11-30T16:56:34.692Z,7.80
2022-11-30T16:59:02.455Z,7.10
2022-11-30T17:01:35.947Z,8.32
2022-11-30T17:04:23.947Z,8.20
2022-11-30T17:06:55.853Z,8.02
2022-11-30T17:09:27.940Z,7.87
2022-11-30T17:11:55.646Z,7.97
2022-11-30T17:14:23.547Z,9.48
2022-11-30T17:16:51.358Z,8.63
2022-11-30T17:19:19.706Z,9.10
2022-11-30T17:21:47.693Z,8.73
2022-11-30T17:24:15.640Z,8.77
2022-11-30T17:26:43.459Z,6.78
2022-11-30T17:29:11.063Z,8.40
2022-11-30T17:31:38.778Z,7.57
2022-11-30T17:34:07.034Z,7.12
2022-11-30T17:36:34.766Z,7.15
2022-11-30T17:39:08.231Z,6.03
2022-11-30T17:41:36.098Z,6.00
2022-11-30T17:44:03.954Z,6.12
2022-11-30T17:46:31.654Z,5.57
2022-11-30T17:48:59.699Z,4.85
2022-11-30T17:51:27.411Z,4.87
2022-11-30T17:53:55.087Z,5.53
2022-11-30T17:56:23.158Z,5.30
2022-11-30T17:58:51.127Z,5.45
2022-11-30T18:01:24.968Z,5.57
2022-11-30T18:03:54.008Z,5.72
2022-11-30T18:06:21.894Z,5.55
2022-11-30T18:08:49.686Z,5.93
2022-11-30T18:11:22.932Z,5.95
2022-11-30T18:13:54.415Z,6.18
2022-11-30T18:16:25.764Z,6.47
2022-11-30T18:18:54.345Z,5.15
2022-11-30T18:21:24.071Z,5.22
2022-11-30T18:23:52.297Z,5.93
2022-11-30T18:26:22.645Z,5.43
2022-11-30T18:28:55.377Z,5.85
2022-11-30T18:31:23.188Z,6.20
2022-11-30T18:33:58.553Z,5.45
2022-11-30T18:36:26.959Z,6.57
2022-11-30T18:38:55.008Z,5.87
2022-11-30T18:41:23.403Z,6.60
2022-11-30T18:43:51.062Z,6.65
2022-11-30T18:46:18.678Z,5.43
2022-11-30T18:48:51.157Z,6.80
2022-11-30T18:51:21.512Z,6.03
2022-11-30T18:53:49.225Z,6.43
2022-11-30T18:56:19.582Z,5.90
2022-11-30T18:58:48.897Z,6.70
2022-11-30T19:01:19.586Z,6.75
2022-11-30T19:03:54.702Z,6.60
2022-11-30T19:06:23.143Z,6.57
2022-11-30T19:08:50.752Z,6.15
2022-11-30T19:11:19.048Z,5.90
2022-11-30T19:13:47.156Z,6.40
2022-11-30T19:16:17.597Z,6.35
2022-11-30T19:18:46.229Z,6.65
2022-11-30T19:21:19.109Z,6.90
2022-11-30T19:23:47.541Z,7.03
2022-11-30T19:26:16.330Z,6.85
2022-11-30T19:28:45.160Z,6.65
2022-11-30T19:31:16.083Z,6.65
2022-11-30T19:33:46.345Z,7.53
2022-11-30T19:36:22.500Z,7.45
2022-11-30T19:38:52.359Z,7.65
2022-11-30T19:41:21.944Z,7.45
2022-11-30T19:43:58.303Z,6.90
2022-11-30T19:46:31.797Z,6.57
2022-11-30T19:49:02.312Z,7.15
2022-11-30T19:51:31.462Z,7.25
2022-11-30T19:54:00.384Z,5.93
2022-11-30T19:56:29.732Z,8.05
2022-11-30T19:59:04.108Z,6.55
2022-11-30T20:01:32.734Z,7.60
2022-11-30T20:04:00.436Z,7.65
2022-11-30T20:06:31.227Z,6.87
2022-11-30T20:08:59.160Z,6.60
2022-11-30T20:11:26.864Z,7.85
2022-11-30T20:13:54.880Z,6.78
2022-11-30T20:16:23.928Z,6.45
2022-11-30T20:18:54.807Z,7.80
2022-11-30T20:21:25.732Z,7.55
2022-11-30T20:23:54.800Z,7.32
2022-11-30T20:26:25.647Z,8.23
2022-11-30T20:28:53.951Z,7.93
2022-11-30T20:31:23.978Z,8.57
2022-11-30T20:33:52.085Z,7.15
2022-11-30T20:36:21.271Z,7.55
2022-11-30T20:38:49.460Z,7.90
2022-11-30T20:41:23.134Z,8.70
2022-11-30T20:43:51.401Z,8.45
2022-11-30T20:46:25.028Z,8.20
2022-11-30T20:48:53.253Z,8.13
2022-11-30T20:51:33.891Z,7.90
2022-11-30T20:54:04.684Z,8.38
2022-11-30T20:56:32.633Z,7.37
2022-11-30T20:59:06.198Z,7.57
2022-11-30T21:01:34.170Z,8.10
2022-11-30T21:04:02.259Z,8.52
2022-11-30T21:06:31.930Z,8.15
2022-11-30T21:09:00.511Z,7.30
2022-11-30T21:11:29.685Z,6.90
2022-11-30T21:13:59.117Z,8.05
2022-11-30T21:16:29.256Z,7.65
2022-11-30T21:18:59.932Z,7.85
2022-11-30T21:21:34.370Z,8.38
2022-11-30T21:24:05.619Z,7.40
2022-11-30T21:26:36.713Z,7.87
2022-11-30T21:29:15.374Z,6.57
2022-11-30T21:31:43.791Z,7.47
2022-11-30T21:34:11.574Z,7.57
2022-11-30T21:36:39.885Z,7.70
2022-11-30T21:39:08.643Z,7.28
2022-11-30T21:41:38.125Z,6.90
2022-11-30T21:44:07.059Z,7.53
2022-11-30T21:46:35.231Z,7.10
2022-11-30T21:49:03.962Z,7.55
2022-11-30T21:51:35.434Z,7.97
2022-11-30T21:54:06.275Z,9.10
2022-11-30T21:56:36.878Z,8.13
2022-11-30T21:59:09.495Z,8.50
2022-11-30T22:01:42.842Z,8.35
2022-11-30T22:04:13.087Z,8.60
2022-11-30T22:06:42.258Z,8.93
2022-11-30T22:09:14.906Z,8.55
2022-11-30T22:11:44.787Z,8.15
2022-11-30T22:14:15.322Z,8.65
2022-11-30T22:16:43.849Z,9.45
2022-11-30T22:19:12.148Z,8.18
2022-11-30T22:21:40.346Z,8.93
2022-11-30T22:24:14.493Z,9.52
2022-11-30T22:26:44.752Z,9.10
2022-11-30T22:29:23.503Z,9.10
2022-11-30T22:31:54.963Z,8.63
2022-11-30T22:34:22.682Z,8.68
2022-11-30T22:36:50.342Z,9.30
2022-11-30T22:39:20.818Z,9.05
2022-11-30T22:41:54.729Z,9.02
2022-11-30T22:44:24.067Z,9.18
2022-11-30T22:46:51.987Z,8.13
2022-11-30T22:49:21.711Z,9.48
2022-11-30T22:51:50.538Z,9.18
2022-11-30T22:54:18.912Z,8.65
2022-11-30T22:56:47.420Z,8.73
2022-11-30T22:59:16.106Z,9.55
2022-11-30T23:01:49.542Z,8.77
2022-11-30T23:04:19.827Z,8.02
2022-11-30T23:06:49.287Z,9.90
2022-11-30T23:09:21.946Z,9.35
2022-11-30T23:11:50.872Z,9.23
2022-11-30T23:14:19.250Z,9.27
2022-11-30T23:16:47.133Z,8.75
2022-11-30T23:19:15.692Z,9.93
2022-11-30T23:21:46.476Z,8.73
2022-11-30T23:24:18.586Z,9.40
2022-11-30T23:26:46.433Z,8.98
2022-11-30T23:29:16.164Z,9.18
2022-11-30T23:31:45.733Z,9.52
2022-11-30T23:34:17.272Z,9.98
2022-11-30T23:36:45.164Z,8.75
2022-11-30T23:39:16.832Z,8.80
2022-11-30T23:41:44.826Z,8.35
2022-11-30T23:44:13.185Z,9.73
2022-11-30T23:46:41.354Z,9.75
2022-11-30T23:49:09.434Z,11.85
2022-11-30T23:51:37.203Z,10.32
2022-11-30T23:54:05.078Z,10.60
2022-11-30T23:56:32.773Z,10.27
2022-11-30T23:59:00.556Z,8.82
